createdAt,value
2022-12-20T00:01:55.468Z,42.13
2022-12-20T00:04:23.786Z,50.90
2022-12-20T00:06:52.156Z,39.77
2022-12-20T00:09:20.693Z,43.53
2022-12-20T00:11:49.096Z,37.37
2022-12-20T00:14:17.164Z,37.67
2022-12-20T00:16:45.425Z,31.27
2022-12-20T00:19:14.935Z,29.50
2022-12-20T00:21:43.125Z,31.27
2022-12-20T00:24:12.604Z,26.07
2022-12-20T00:26:40.790Z,24.87
2022-12-20T00:29:09.039Z,23.20
2022-12-20T00:31:37.336Z,30.00
2022-12-20T00:34:06.041Z,48.00
2022-12-20T00:36:35.586Z,37.70
2022-12-20T00:39:04.219Z,37.97
2022-12-20T00:41:35.715Z,34.50
2022-12-20T00:44:05.455Z,38.53
2022-12-20T00:46:34.367Z,35.17
2022-12-20T00:49:02.783Z,36.50
2022-12-20T00:51:32.630Z,31.23
2022-12-20T00:54:02.211Z,37.17
2022-12-20T00:56:31.420Z,28.03
2022-12-20T00:59:00.666Z,27.97
2022-12-20T01:01:31.697Z,29.97
2022-12-20T01:04:00.100Z,26.33
2022-12-20T01:06:29.155Z,26.37
2022-12-20T01:08:57.733Z,25.40
2022-12-20T01:11:28.882Z,28.07
2022-12-20T01:13:58.536Z,27.77
2022-12-20T01:16:28.997Z,34.07
2022-12-20T01:18:58.418Z,34.60
2022-12-20T01:21:28.644Z,38.13
2022-12-20T01:23:57.929Z,32.37
2022-12-20T01:26:29.279Z,35.97
2022-12-20T01:28:58.944Z,34.47
2022-12-20T01:31:28.428Z,42.63
2022-12-20T01:33:56.626Z,35.93
2022-12-20T01:36:26.737Z,29.33
2022-12-20T01:38:58.792Z,34.83
2022-12-20T01:41:30.833Z,35.40
2022-12-20T01:44:01.483Z,26.40
2022-12-20T01:46:31.465Z,26.77
2022-12-20T01:49:05.779Z,30.57
2022-12-20T01:51:38.116Z,34.90
2022-12-20T01:54:12.499Z,25.20
2022-12-20T01:56:46.514Z,28.27
2022-12-20T01:59:15.127Z,30.17
2022-12-20T02:01:44.731Z,29.20
2022-12-20T02:04:13.504Z,27.53
2022-12-20T02:06:42.733Z,25.70
2022-12-20T02:09:12.042Z,25.03
2022-12-20T02:12:07.455Z,27.70
2022-12-20T02:14:51.942Z,22.67
2022-12-20T02:17:29.732Z,28.53
2022-12-20T02:20:55.760Z,25.97
2022-12-20T02:24:11.489Z,26.20
2022-12-20T02:27:06.053Z,24.47
2022-12-20T02:29:38.600Z,29.83
2022-12-20T02:32:16.176Z,25.47
2022-12-20T02:34:44.849Z,22.40
2022-12-20T02:37:13.501Z,25.87
2022-12-20T02:39:43.448Z,28.20
2022-12-20T02:42:15.902Z,33.23
2022-12-20T02:45:16.031Z,28.53
2022-12-20T02:47:53.354Z,24.37
2022-12-20T02:50:33.878Z,34.77
2022-12-20T02:53:10.467Z,30.50
2022-12-20T02:56:08.539Z,29.07
2022-12-20T02:58:46.030Z,32.13
2022-12-20T03:01:19.610Z,27.00
2022-12-20T03:03:49.934Z,31.27
2022-12-20T03:06:18.369Z,29.67
2022-12-20T03:08:47.248Z,34.37
2022-12-20T03:11:15.422Z,36.67
2022-12-20T03:13:43.569Z,32.90
2022-12-20T03:16:11.881Z,34.53
2022-12-20T03:18:40.254Z,40.67
2022-12-20T03:21:09.925Z,39.57
2022-12-20T03:23:38.202Z,45.20
2022-12-20T03:26:06.605Z,36.97
2022-12-20T03:28:34.717Z,36.53
2022-12-20T03:31:02.877Z,33.60
2022-12-20T03:33:31.213Z,47.93
2022-12-20T03:35:59.297Z,35.60
2022-12-20T03:38:28.831Z,34.97
2022-12-20T03:40:57.034Z,34.07
2022-12-20T03:43:25.276Z,38.87
2022-12-20T03:45:53.445Z,34.10
2022-12-20T03:48:21.662Z,37.27
2022-12-20T03:50:50.019Z,32.83
2022-12-20T03:53:18.133Z,34.87
2022-12-20T03:55:47.643Z,37.20
2022-12-20T03:58:15.745Z,36.60
2022-12-20T04:00:44.029Z,34.07
2022-12-20T04:03:12.411Z,32.10
2022-12-20T04:05:40.878Z,32.10
2022-12-20T04:08:10.072Z,32.03
2022-12-20T04:10:58.414Z,35.87
2022-12-20T04:13:27.853Z,35.10
2022-12-20T04:16:00.325Z,33.33
2022-12-20T04:18:28.961Z,43.47
2022-12-20T04:20:57.129Z,39.40
2022-12-20T04:23:25.197Z,35.63
2022-12-20T04:25:53.492Z,42.60
2022-12-20T04:28:21.963Z,46.37
2022-12-20T04:30:51.656Z,35.27
2022-12-20T04:33:19.915Z,39.73
2022-12-20T04:35:48.121Z,55.07
2022-12-20T04:38:16.343Z,37.07
2022-12-20T04:40:44.722Z,45.93
2022-12-20T04:43:12.898Z,41.37
2022-12-20T04:45:41.027Z,28.63
2022-12-20T04:48:46.159Z,34.83
2022-12-20T04:50:59.305Z,56.73
2022-12-20T04:53:47.989Z,45.93
2022-12-20T04:56:20.771Z,40.13
2022-12-20T04:58:50.069Z,37.63
2022-12-20T05:01:18.592Z,37.13
2022-12-20T05:03:49.232Z,40.67
2022-12-20T05:06:19.023Z,35.80
2022-12-20T05:08:47.106Z,36.20
2022-12-20T05:11:15.420Z,36.37
2022-12-20T05:13:43.817Z,32.60
2022-12-20T05:16:12.102Z,37.13
2022-12-20T05:18:48.177Z,32.23
2022-12-20T05:21:37.966Z,31.07
2022-12-20T05:24:24.382Z,29.80
2022-12-20T05:26:52.580Z,30.03
2022-12-20T05:29:20.779Z,37.27
2022-12-20T05:31:48.958Z,32.40
2022-12-20T05:34:17.331Z,31.73
2022-12-20T05:36:46.821Z,32.77
2022-12-20T05:39:15.013Z,33.80
2022-12-20T05:41:43.466Z,31.73
2022-12-20T05:44:11.707Z,30.07
2022-12-20T05:46:39.970Z,32.10
2022-12-20T05:49:08.167Z,32.13
2022-12-20T05:51:36.545Z,33.40
2022-12-20T05:54:06.113Z,31.23
2022-12-20T05:56:34.327Z,31.53
2022-12-20T05:59:02.435Z,26.83
2022-12-20T06:01:30.838Z,27.80
2022-12-20T06:04:00.386Z,27.87
2022-12-20T06:06:30.668Z,24.83
2022-12-20T06:08:58.818Z,30.23
2022-12-20T06:11:30.371Z,28.57
2022-12-20T06:13:59.703Z,28.67
2022-12-20T06:16:28.568Z,26.30
2022-12-20T06:18:57.617Z,26.43
2022-12-20T06:21:27.616Z,28.43
2022-12-20T06:23:56.753Z,32.70
2022-12-20T06:26:25.120Z,25.77
2022-12-20T06:28:57.170Z,25.73
2022-12-20T06:31:25.797Z,27.40
2022-12-20T06:33:55.145Z,26.70
2022-12-20T06:36:23.849Z,26.70
2022-12-20T06:38:52.424Z,30.93
2022-12-20T06:41:20.951Z,25.50
2022-12-20T06:43:50.925Z,32.53
2022-12-20T06:46:20.727Z,27.07
2022-12-20T06:48:49.093Z,29.90
2022-12-20T06:51:17.677Z,31.50
2022-12-20T06:53:46.021Z,27.50
2022-12-20T06:56:14.586Z,30.57
2022-12-20T06:58:43.092Z,26.20
2022-12-20T07:01:11.550Z,34.20
2022-12-20T07:03:41.355Z,27.13
2022-12-20T07:06:09.835Z,31.70
2022-12-20T07:08:38.162Z,26.40
2022-12-20T07:11:07.255Z,29.23
2022-12-20T07:13:35.911Z,30.73
2022-12-20T07:16:05.575Z,28.33
2022-12-20T07:18:35.514Z,29.67
2022-12-20T07:21:07.188Z,27.20
2022-12-20T07:23:35.896Z,28.50
2022-12-20T07:26:05.519Z,27.07
2022-12-20T07:28:33.899Z,31.43
2022-12-20T07:31:03.178Z,29.60
2022-12-20T07:33:32.556Z,31.43
2022-12-20T07:36:07.201Z,29.57
2022-12-20T07:38:35.738Z,31.90
2022-12-20T07:41:09.213Z,28.70
2022-12-20T07:43:38.227Z,33.90
2022-12-20T07:46:08.275Z,33.93
2022-12-20T07:48:37.348Z,27.87
2022-12-20T07:51:10.951Z,28.77
2022-12-20T07:53:42.458Z,30.10
2022-12-20T07:56:12.143Z,29.93
2022-12-20T07:58:42.878Z,31.07
2022-12-20T08:01:12.562Z,27.60
2022-12-20T08:03:45.666Z,32.37
2022-12-20T08:06:18.168Z,34.07
2022-12-20T08:08:52.288Z,35.20
2022-12-20T08:11:22.474Z,29.80
2022-12-20T08:13:57.443Z,31.23
2022-12-20T08:16:26.657Z,31.70
2022-12-20T08:18:55.314Z,31.93
2022-12-20T08:21:25.090Z,34.77
2022-12-20T08:23:53.881Z,30.93
2022-12-20T08:26:22.235Z,32.43
2022-12-20T08:28:50.758Z,36.57
2022-12-20T08:31:19.183Z,37.20
2022-12-20T08:33:47.712Z,38.53
2022-12-20T08:36:16.287Z,36.03
2022-12-20T08:38:46.485Z,35.03
2022-12-20T08:41:18.040Z,38.33
2022-12-20T08:43:46.439Z,33.53
2022-12-20T08:46:14.995Z,31.00
2022-12-20T08:48:43.392Z,29.50
2022-12-20T08:51:13.018Z,31.93
2022-12-20T08:53:41.572Z,34.30
2022-12-20T08:56:13.977Z,37.47
2022-12-20T08:58:42.973Z,36.10
2022-12-20T09:01:13.673Z,32.00
2022-12-20T09:03:42.661Z,32.37
2022-12-20T09:06:13.171Z,31.47
2022-12-20T09:08:42.351Z,35.40
2022-12-20T09:11:14.142Z,36.47
2022-12-20T09:13:44.778Z,36.37
2022-12-20T09:16:16.079Z,33.03
2022-12-20T09:18:44.886Z,39.53
2022-12-20T09:21:13.530Z,35.57
2022-12-20T09:23:42.085Z,30.63
2022-12-20T09:26:14.731Z,35.73
2022-12-20T09:28:43.788Z,36.10
2022-12-20T09:31:14.560Z,39.30
2022-12-20T09:33:43.858Z,39.23
2022-12-20T09:36:13.479Z,36.30
2022-12-20T09:38:42.070Z,44.97
2022-12-20T09:41:26.428Z,41.57
2022-12-20T09:43:56.140Z,41.30
2022-12-20T09:46:24.969Z,38.47
2022-12-20T09:48:54.031Z,39.43
2022-12-20T09:51:35.545Z,39.27
2022-12-20T09:54:15.335Z,36.80
2022-12-20T09:56:59.165Z,40.57
2022-12-20T09:59:28.582Z,42.37
2022-12-20T10:02:00.577Z,39.00
2022-12-20T10:04:41.860Z,34.87
2022-12-20T10:07:23.429Z,36.57
2022-12-20T10:10:21.874Z,39.90
2022-12-20T10:13:01.326Z,34.73
2022-12-20T10:15:35.333Z,34.47
2022-12-20T10:18:22.974Z,34.73
2022-12-20T10:21:01.117Z,31.13
2022-12-20T10:23:36.970Z,34.27
2022-12-20T10:26:11.739Z,40.20
2022-12-20T10:28:42.171Z,33.63
2022-12-20T10:31:14.999Z,34.00
2022-12-20T10:33:44.360Z,34.43
2022-12-20T10:36:21.744Z,33.07
2022-12-20T10:38:52.156Z,36.13
2022-12-20T10:41:23.822Z,35.20
2022-12-20T10:43:59.491Z,37.05
2022-12-20T10:46:38.856Z,37.00
2022-12-20T10:49:23.633Z,35.67
2022-12-20T10:51:56.168Z,34.15
2022-12-20T10:54:26.238Z,36.53
2022-12-20T10:56:59.143Z,36.80
2022-12-20T10:59:34.421Z,36.70
2022-12-20T11:02:04.308Z,34.13
2022-12-20T11:04:34.700Z,31.70
2022-12-20T11:07:05.890Z,37.57
2022-12-20T11:09:36.001Z,38.67
2022-12-20T11:12:07.662Z,38.40
2022-12-20T11:14:40.019Z,38.37
2022-12-20T11:17:23.850Z,42.00
2022-12-20T11:20:13.628Z,35.57
2022-12-20T11:22:53.415Z,36.10
2022-12-20T11:25:49.133Z,33.13
2022-12-20T11:28:41.211Z,34.53
2022-12-20T11:31:20.511Z,32.33
2022-12-20T11:34:07.608Z,38.73
2022-12-20T11:36:57.590Z,31.43
2022-12-20T11:39:33.143Z,38.78
2022-12-20T11:42:10.323Z,31.13
2022-12-20T11:45:00.609Z,28.95
2022-12-20T11:48:05.211Z,29.47
2022-12-20T11:50:47.630Z,27.80
2022-12-20T11:53:22.352Z,29.83
2022-12-20T11:55:55.731Z,29.55
2022-12-20T11:58:34.078Z,27.25
2022-12-20T12:01:08.930Z,24.13
2022-12-20T12:03:41.079Z,28.70
2022-12-20T12:06:17.455Z,26.52
2022-12-20T12:08:50.085Z,28.35
2022-12-20T12:12:04.437Z,25.95
2022-12-20T12:14:24.746Z,27.48
2022-12-20T12:16:59.264Z,24.13
2022-12-20T12:19:32.232Z,21.73
2022-12-20T12:22:07.287Z,23.80
2022-12-20T12:24:40.152Z,24.08
2022-12-20T12:27:16.576Z,27.35
2022-12-20T12:29:45.299Z,28.60
2022-12-20T12:32:21.849Z,28.33
2022-12-20T12:35:07.307Z,28.20
2022-12-20T12:37:56.585Z,27.33
2022-12-20T12:40:50.475Z,31.13
2022-12-20T12:43:50.693Z,32.70
2022-12-20T12:46:23.968Z,27.25
2022-12-20T12:48:57.577Z,26.83
2022-12-20T12:51:32.948Z,29.83
2022-12-20T12:54:22.530Z,25.80
2022-12-20T12:56:51.930Z,28.45
2022-12-20T12:59:46.160Z,28.27
2022-12-20T13:02:49.897Z,25.42
2022-12-20T13:05:36.407Z,25.88
2022-12-20T13:08:17.886Z,23.75
2022-12-20T13:11:14.205Z,24.23
2022-12-20T13:13:42.547Z,24.02
2022-12-20T13:17:02.212Z,25.13
2022-12-20T13:19:19.308Z,31.23
2022-12-20T13:21:48.614Z,29.80
2022-12-20T13:24:58.520Z,25.30
2022-12-20T13:27:36.813Z,30.17
2022-12-20T13:30:27.032Z,28.38
2022-12-20T13:33:25.167Z,27.23
2022-12-20T13:36:02.393Z,27.38
2022-12-20T13:38:51.156Z,28.25
2022-12-20T13:41:35.351Z,26.38
2022-12-20T13:44:33.343Z,24.88
2022-12-20T13:47:12.172Z,25.38
2022-12-20T13:49:42.194Z,24.17
2022-12-20T13:52:35.251Z,23.85
2022-12-20T13:55:17.046Z,26.90
2022-12-20T13:57:47.161Z,26.73
2022-12-20T14:00:19.137Z,25.00
2022-12-20T14:02:47.763Z,23.73
2022-12-20T14:05:20.068Z,24.75
2022-12-20T14:07:52.679Z,27.00
2022-12-20T14:10:24.478Z,27.10
2022-12-20T14:12:55.145Z,29.85
2022-12-20T14:15:26.388Z,28.02
2022-12-20T14:17:54.931Z,26.27
2022-12-20T14:20:27.510Z,26.02
2022-12-20T14:23:05.153Z,23.95
2022-12-20T14:25:39.263Z,23.48
2022-12-20T14:28:24.781Z,29.40
2022-12-20T14:30:56.388Z,34.60
2022-12-20T14:33:31.279Z,31.83
2022-12-20T14:36:08.340Z,28.10
2022-12-20T14:38:36.691Z,29.10
2022-12-20T14:41:05.060Z,41.45
2022-12-20T14:43:38.614Z,45.53
2022-12-20T14:46:24.823Z,41.30
2022-12-20T14:49:13.911Z,29.75
2022-12-20T14:51:43.512Z,32.93
2022-12-20T14:54:56.202Z,30.27
2022-12-20T14:57:18.702Z,30.40
2022-12-20T15:00:00.910Z,28.55
2022-12-20T15:02:38.102Z,27.02
2022-12-20T15:05:31.701Z,28.53
2022-12-20T15:08:11.897Z,26.15
2022-12-20T15:10:42.212Z,27.30
2022-12-20T15:13:15.524Z,26.77
2022-12-20T15:15:45.996Z,27.58
2022-12-20T15:18:15.491Z,25.30
2022-12-20T15:20:45.386Z,27.10
2022-12-20T15:23:18.228Z,21.17
2022-12-20T15:25:47.416Z,21.53
2022-12-20T15:28:18.272Z,22.95
2022-12-20T15:30:49.016Z,21.50
2022-12-20T15:33:20.209Z,23.37
2022-12-20T15:35:52.832Z,20.73
2022-12-20T15:38:35.034Z,21.47
2022-12-20T15:41:22.765Z,22.37
2022-12-20T15:43:53.657Z,23.03
2022-12-20T15:46:23.814Z,22.27
2022-12-20T15:48:52.187Z,25.43
2022-12-20T15:51:28.166Z,20.27
2022-12-20T15:53:56.664Z,22.23
2022-12-20T15:56:26.536Z,20.47
2022-12-20T15:58:55.748Z,23.17
2022-12-20T16:01:31.201Z,21.03
2022-12-20T16:04:05.364Z,22.23
2022-12-20T16:06:34.844Z,21.27
2022-12-20T16:09:03.841Z,19.47
2022-12-20T16:11:32.585Z,23.27
2022-12-20T16:14:01.564Z,19.20
2022-12-20T16:16:33.772Z,20.87
2022-12-20T16:19:03.768Z,22.43
2022-12-20T16:21:34.628Z,21.97
2022-12-20T16:24:03.554Z,22.90
2022-12-20T16:26:33.166Z,20.53
2022-12-20T16:29:01.741Z,20.07
2022-12-20T16:31:33.374Z,31.17
2022-12-20T16:34:04.556Z,33.00
2022-12-20T16:36:33.797Z,26.77
2022-12-20T16:39:02.669Z,25.43
2022-12-20T16:41:32.592Z,30.90
2022-12-20T16:44:02.449Z,25.83
2022-12-20T16:46:34.260Z,32.60
2022-12-20T16:49:02.862Z,37.53
2022-12-20T16:51:34.759Z,38.60
2022-12-20T16:54:21.299Z,29.73
2022-12-20T16:56:55.148Z,33.33
2022-12-20T16:59:23.873Z,20.40
2022-12-20T17:01:56.865Z,21.33
2022-12-20T17:04:26.822Z,20.57
2022-12-20T17:06:55.590Z,19.57
2022-12-20T17:12:16.381Z,18.30
2022-12-20T17:14:47.284Z,18.93
2022-12-20T17:17:19.238Z,19.13
2022-12-20T17:19:48.139Z,21.03
2022-12-20T17:25:06.579Z,18.60
2022-12-20T17:27:34.749Z,19.30
2022-12-20T17:30:03.618Z,20.67
2022-12-20T17:32:34.384Z,20.80
2022-12-20T17:35:03.136Z,20.57
2022-12-20T17:37:31.391Z,18.40
2022-12-20T17:39:59.745Z,18.50
2022-12-20T17:42:31.366Z,22.03
2022-12-20T17:45:01.025Z,20.07
2022-12-20T17:47:29.178Z,19.90
2022-12-20T17:49:59.284Z,19.70
2022-12-20T17:52:27.401Z,18.30
2022-12-20T17:54:55.607Z,17.60
2022-12-20T17:57:23.795Z,16.03
2022-12-20T17:59:53.079Z,15.63
2022-12-20T18:02:23.658Z,24.17
2022-12-20T18:04:52.316Z,25.50
2022-12-20T18:07:21.877Z,19.90
2022-12-20T18:09:51.018Z,17.30
2022-12-20T18:12:19.919Z,16.53
2022-12-20T18:14:49.711Z,17.80
2022-12-20T18:17:17.892Z,15.80
2022-12-20T18:19:46.016Z,18.37
2022-12-20T18:22:15.769Z,17.50
2022-12-20T18:24:45.263Z,21.53
2022-12-20T18:27:13.684Z,18.03
2022-12-20T18:29:41.931Z,19.63
2022-12-20T18:32:10.489Z,17.70
2022-12-20T18:34:39.116Z,16.23
2022-12-20T18:37:07.671Z,15.60
2022-12-20T18:39:36.012Z,15.73
2022-12-20T18:42:05.690Z,15.97
2022-12-20T18:44:35.960Z,16.10
2022-12-20T18:47:04.864Z,16.13
2022-12-20T18:49:33.185Z,15.53
2022-12-20T18:52:07.789Z,15.67
2022-12-20T18:54:36.982Z,17.87
2022-12-20T18:57:07.693Z,16.63
2022-12-20T18:59:39.810Z,18.97
2022-12-20T19:02:11.449Z,15.13
2022-12-20T19:04:40.069Z,17.23
2022-12-20T19:07:08.278Z,16.77
2022-12-20T19:09:37.784Z,18.50
2022-12-20T19:12:07.733Z,17.30
2022-12-20T19:14:35.875Z,16.30
2022-12-20T19:17:04.340Z,16.97
2022-12-20T19:19:32.842Z,17.47
2022-12-20T19:22:01.053Z,15.03
2022-12-20T19:24:29.277Z,15.97
2022-12-20T19:26:57.737Z,15.40
2022-12-20T19:29:27.346Z,16.63
2022-12-20T19:31:56.635Z,17.67
2022-12-20T19:34:24.857Z,17.13
2022-12-20T19:36:53.724Z,20.37
2022-12-20T19:39:23.608Z,24.63
2022-12-20T19:42:22.323Z,22.90
2022-12-20T19:44:43.958Z,21.90
2022-12-20T19:47:13.218Z,20.87
2022-12-20T19:49:42.499Z,25.30
2022-12-20T19:52:12.846Z,26.10
2022-12-20T19:54:43.263Z,22.70
2022-12-20T19:57:11.498Z,23.93
2022-12-20T19:59:40.725Z,23.13
2022-12-20T20:02:14.752Z,18.90
2022-12-20T20:04:43.704Z,17.47
2022-12-20T20:07:11.822Z,17.73
2022-12-20T20:09:40.173Z,19.43
2022-12-20T20:12:10.985Z,18.00
2022-12-20T20:14:39.191Z,16.87
2022-12-20T20:17:07.615Z,20.00
2022-12-20T20:19:38.056Z,21.30
2022-12-20T20:22:10.828Z,17.07
2022-12-20T20:24:39.014Z,20.87
2022-12-20T20:27:07.257Z,18.77
2022-12-20T20:29:36.665Z,16.10
2022-12-20T20:32:05.341Z,16.73
2022-12-20T20:34:33.704Z,18.17
2022-12-20T20:37:03.855Z,20.67
2022-12-20T20:39:36.599Z,18.13
2022-12-20T20:42:04.878Z,17.63
2022-12-20T20:44:33.111Z,16.43
2022-12-20T20:47:01.504Z,19.43
2022-12-20T20:49:30.650Z,18.77
2022-12-20T20:51:59.886Z,20.53
2022-12-20T20:54:29.632Z,22.67
2022-12-20T20:56:57.758Z,19.97
2022-12-20T20:59:26.054Z,18.90
2022-12-20T21:01:55.413Z,14.17
2022-12-20T21:04:23.579Z,14.80
2022-12-20T21:06:51.710Z,15.40
2022-12-20T21:09:20.152Z,16.97
2022-12-20T21:11:50.240Z,15.37
2022-12-20T21:14:36.217Z,14.10
2022-12-20T21:17:06.835Z,13.23
2022-12-20T21:19:35.121Z,14.53
2022-12-20T21:22:06.066Z,13.73
2022-12-20T21:24:34.213Z,14.40
2022-12-20T21:27:04.261Z,17.40
2022-12-20T21:29:32.619Z,14.70
2022-12-20T21:32:00.852Z,14.87
2022-12-20T21:34:29.200Z,14.60
2022-12-20T21:36:58.303Z,17.60
2022-12-20T21:39:26.404Z,15.47
2022-12-20T21:42:01.494Z,15.07
2022-12-20T21:44:31.570Z,15.40
2022-12-20T21:46:59.904Z,15.13
2022-12-20T21:49:28.366Z,15.07
2022-12-20T21:51:56.994Z,14.10
2022-12-20T21:54:25.279Z,16.10
2022-12-20T21:56:53.547Z,14.93
2022-12-20T21:59:21.679Z,14.67
2022-12-20T22:01:51.911Z,14.23
2022-12-20T22:04:20.272Z,13.33
2022-12-20T22:06:50.481Z,16.50
2022-12-20T22:09:18.584Z,16.70
2022-12-20T22:11:49.177Z,15.30
2022-12-20T22:14:17.468Z,14.90
2022-12-20T22:16:45.724Z,14.70
2022-12-20T22:19:15.981Z,14.10
2022-12-20T22:21:44.100Z,14.97
2022-12-20T22:24:12.248Z,15.03
2022-12-20T22:26:41.644Z,12.83
2022-12-20T22:29:10.522Z,15.50
2022-12-20T22:31:38.703Z,15.20
2022-12-20T22:34:06.943Z,16.33
2022-12-20T22:36:37.037Z,14.27
2022-12-20T22:39:05.619Z,14.17
2022-12-20T22:41:34.829Z,13.30
2022-12-20T22:44:03.419Z,15.00
2022-12-20T22:46:32.945Z,14.17
2022-12-20T22:49:01.400Z,14.20
2022-12-20T22:51:31.852Z,12.67
2022-12-20T22:54:01.581Z,11.97
2022-12-20T22:56:29.977Z,14.30
2022-12-20T22:58:58.531Z,13.77
2022-12-20T23:01:27.838Z,15.07
2022-12-20T23:03:56.367Z,13.77
2022-12-20T23:06:25.543Z,14.63
2022-12-20T23:08:55.476Z,14.87
2022-12-20T23:11:44.251Z,16.20
2022-12-20T23:14:32.078Z,14.87
2022-12-20T23:17:01.115Z,16.30
2022-12-20T23:19:49.780Z,15.30
2022-12-20T23:22:40.818Z,13.07
2022-12-20T23:25:11.765Z,16.30
2022-12-20T23:27:43.157Z,13.23
2022-12-20T23:30:13.423Z,16.07
2022-12-20T23:32:44.745Z,12.83
2022-12-20T23:35:13.574Z,11.47
2022-12-20T23:37:41.678Z,12.40
2022-12-20T23:40:13.983Z,14.80
2022-12-20T23:42:46.689Z,14.03
2022-12-20T23:45:15.069Z,12.67
2022-12-20T23:47:43.443Z,14.60
2022-12-20T23:50:13.999Z,13.73
2022-12-20T23:52:42.458Z,16.40
2022-12-20T23:55:11.227Z,14.37
2022-12-20T23:57:40.036Z,15.10
